Time;durP1;ratioP1;P1;durP2;ratioP2;P2;SDS_P1;SDS_P2;PMS_P1;PMS_P2;Temp;Humidity;BMP_temperature;BMP_pressure;BME280_temperature;BME280_humidity;BME280_pressure;Samples;Min_cycle;Max_cycle;Signal;HPM_P1;HPM_P2
2022/02/12 00:01:28;;;;;;;3.20;1.77;;;2.00;99.90;;;;;;20726587;28;20482;-45
2022/02/12 00:11:29;;;;;;;6.07;1.90;;;1.90;99.90;;;;;;20697281;28;20037;-44
2022/02/12 00:21:30;;;;;;;5.65;1.58;;;1.90;99.90;;;;;;20732412;28;20390;-45
2022/02/12 00:31:31;;;;;;;4.82;2.28;;;2.00;99.90;;;;;;20734682;28;20045;-45
2022/02/12 00:41:32;;;;;;;5.15;1.85;;;2.00;99.90;;;;;;20719316;28;20049;-45
2022/02/12 00:51:34;;;;;;;5.90;1.65;;;2.00;99.90;;;;;;20654588;28;20065;-45
2022/02/12 01:01:35;;;;;;;5.88;1.48;;;2.00;99.90;;;;;;20646164;28;20510;-45
2022/02/12 01:11:36;;;;;;;7.72;1.85;;;2.00;99.90;;;;;;20646607;28;20045;-45
2022/02/12 01:21:37;;;;;;;6.43;1.92;;;2.00;99.90;;;;;;20683758;28;20502;-44
2022/02/12 01:31:38;;;;;;;4.28;1.50;;;2.00;99.90;;;;;;20729036;28;20041;-44
2022/02/12 01:41:39;;;;;;;4.00;1.50;;;2.00;99.90;;;;;;20695728;28;20417;-45
2022/02/12 01:51:43;;;;;;;3.65;1.60;;;2.00;99.90;;;;;;20721719;28;20406;-45
2022/02/12 02:01:44;;;;;;;3.25;1.45;;;2.00;99.90;;;;;;20716572;28;20050;-45
2022/02/12 02:11:46;;;;;;;4.10;1.40;;;1.90;99.90;;;;;;20725446;28;20041;-44
2022/02/12 02:21:48;;;;;;;5.80;1.60;;;1.80;99.90;;;;;;20702928;28;20088;-44
2022/02/12 02:31:49;;;;;;;3.50;1.48;;;1.90;99.90;;;;;;20721249;28;20041;-44
2022/02/12 02:41:53;;;;;;;9.55;1.63;;;1.90;99.90;;;;;;20711244;28;20508;-45
2022/02/12 03:02:14;;;;;;;3.13;1.17;;;1.90;99.90;;;;;;20704606;28;20061;-45
2022/02/12 03:12:19;;;;;;;3.30;1.17;;;1.90;99.90;;;;;;20666892;28;20029;-45
2022/02/12 03:22:20;;;;;;;3.55;1.30;;;2.00;99.90;;;;;;20625101;28;20466;-45
2022/02/12 03:32:22;;;;;;;3.45;1.00;;;2.00;99.90;;;;;;20635255;28;20034;-45
2022/02/12 03:42:23;;;;;;;2.40;0.93;;;2.00;99.90;;;;;;20551177;28;20047;-45
2022/02/12 03:52:24;;;;;;;2.20;1.20;;;2.00;99.90;;;;;;20555910;28;20034;-45
2022/02/12 04:02:25;;;;;;;4.45;1.17;;;1.90;99.90;;;;;;20562815;28;20061;-44
2022/02/12 04:12:26;;;;;;;7.47;2.60;;;1.90;99.90;;;;;;20589692;28;20038;-44
2022/02/12 04:22:29;;;;;;;2.90;1.20;;;2.00;99.90;;;;;;20601769;28;20399;-45
2022/02/12 04:32:30;;;;;;;3.58;1.35;;;1.90;99.90;;;;;;20651746;28;20038;-45
2022/02/12 04:42:32;;;;;;;3.22;1.50;;;2.00;99.90;;;;;;20751909;28;20939;-45
2022/02/12 04:52:34;;;;;;;11.88;1.33;;;1.90;99.90;;;;;;20705798;28;20042;-44
2022/02/12 05:02:35;;;;;;;5.38;1.40;;;2.00;99.90;;;;;;20639013;28;20065;-45
2022/02/12 05:12:36;;;;;;;11.20;1.33;;;2.00;99.90;;;;;;20640630;28;20054;-44
2022/02/12 05:22:40;;;;;;;8.93;0.95;;;2.00;99.90;;;;;;20631327;28;20634;-45
2022/02/12 05:32:41;;;;;;;7.82;0.98;;;2.00;99.90;;;;;;20691570;28;20046;-44
2022/02/12 05:42:43;;;;;;;3.47;1.23;;;2.00;99.90;;;;;;20662765;28;20399;-45
2022/02/12 05:52:44;;;;;;;4.72;1.42;;;2.00;99.90;;;;;;20673701;28;20053;-45
2022/02/12 06:02:45;;;;;;;8.52;1.85;;;2.00;99.90;;;;;;20647709;28;20376;-44
2022/02/12 06:12:46;;;;;;;5.18;1.77;;;1.90;99.90;;;;;;20631920;28;20046;-45
2022/02/12 06:22:47;;;;;;;3.97;1.20;;;1.80;99.90;;;;;;20576495;28;20253;-45
2022/02/12 06:32:48;;;;;;;4.65;1.88;;;1.80;99.90;;;;;;20580553;28;20046;-44
2022/02/12 06:42:49;;;;;;;3.72;1.95;;;1.70;99.90;;;;;;20609706;28;20051;-44
2022/02/12 06:52:51;;;;;;;4.10;1.48;;;1.70;99.90;;;;;;20563646;28;20046;-44
2022/02/12 07:02:52;;;;;;;8.68;2.05;;;1.60;99.90;;;;;;20631950;28;20371;-45
2022/02/12 07:12:54;;;;;;;6.47;1.60;;;1.50;99.90;;;;;;20639967;28;20418;-45
2022/02/12 07:22:55;;;;;;;6.88;2.13;;;1.50;99.90;;;;;;20603099;28;20042;-45
2022/02/12 07:32:56;;;;;;;11.73;1.90;;;1.50;99.90;;;;;;20567885;28;20055;-44
2022/02/12 07:42:57;;;;;;;9.18;1.92;;;1.50;99.90;;;;;;20614368;28;20502;-45
2022/02/12 07:52:59;;;;;;;7.35;2.08;;;1.40;99.90;;;;;;20575288;28;20396;-45
2022/02/12 08:03:00;;;;;;;5.40;2.03;;;1.40;99.90;;;;;;20582620;28;20053;-44
2022/02/12 08:13:01;;;;;;;5.47;2.70;;;1.40;99.90;;;;;;20574350;28;20411;-44
2022/02/12 08:23:02;;;;;;;3.58;1.40;;;1.60;99.90;;;;;;20613452;28;20321;-45
2022/02/12 08:33:03;;;;;;;4.20;1.40;;;1.90;99.90;;;;;;20579980;28;20108;-44
2022/02/12 08:43:05;;;;;;;5.13;1.80;;;2.20;99.90;;;;;;20604227;28;20415;-45
2022/02/12 08:53:06;;;;;;;6.07;2.13;;;2.40;99.90;;;;;;20616634;28;20042;-45
2022/02/12 09:03:08;;;;;;;4.22;1.60;;;2.60;99.90;;;;;;20653854;28;20030;-45
2022/02/12 09:13:10;;;;;;;4.70;1.90;;;3.00;99.90;;;;;;20639883;28;20049;-45
2022/02/12 09:23:14;;;;;;;4.22;2.13;;;3.30;99.90;;;;;;20678838;28;20030;-45
2022/02/12 09:33:16;;;;;;;7.07;1.88;;;3.60;99.90;;;;;;20660041;28;20049;-45
2022/02/12 09:43:22;;;;;;;7.88;1.63;;;3.80;99.90;;;;;;20660068;28;20573;-45
2022/02/12 09:53:24;;;;;;;3.28;1.60;;;4.10;99.90;;;;;;20660100;28;20038;-45
2022/02/12 10:03:25;;;;;;;6.07;1.98;;;4.30;99.90;;;;;;20665032;28;20049;-45
2022/02/12 10:13:31;;;;;;;5.80;1.50;;;4.40;99.90;;;;;;20659736;28;20034;-45
2022/02/12 10:23:34;;;;;;;6.10;2.07;;;4.70;99.90;;;;;;20648548;28;20057;-46
2022/02/12 10:33:47;;;;;;;6.68;1.50;;;5.10;99.90;;;;;;20650498;28;20050;-45
2022/02/12 10:43:54;;;;;;;3.33;1.75;;;5.30;99.90;;;;;;20659505;28;20057;-45
2022/02/12 10:53:56;;;;;;;2.37;1.20;;;5.60;99.90;;;;;;20632679;28;20125;-45
2022/02/12 11:03:57;;;;;;;3.75;1.50;;;5.70;99.90;;;;;;20650983;28;20480;-45
2022/02/12 11:13:59;;;;;;;3.85;1.38;;;6.10;99.90;;;;;;20658283;28;20038;-45
2022/02/12 11:24:05;;;;;;;3.78;1.50;;;6.70;99.90;;;;;;20673339;28;20049;-45
2022/02/12 11:34:17;;;;;;;3.30;1.10;;;7.10;99.90;;;;;;20651310;28;20571;-45
2022/02/12 11:44:40;;;;;;;3.00;1.20;;;7.80;99.90;;;;;;20699463;28;21331;-46
2022/02/12 11:54:45;;;;;;;7.18;2.40;;;8.20;99.90;;;;;;20690514;28;20190;-46
2022/02/12 12:05:15;;;;;;;3.47;1.23;;;8.40;99.90;;;;;;20675667;28;20050;-45
2022/02/12 12:15:20;;;;;;;7.63;1.83;;;8.30;99.90;;;;;;20695502;28;21511;-46
2022/02/12 12:25:24;;;;;;;4.05;1.40;;;8.70;99.90;;;;;;20701258;28;20038;-45
2022/02/12 12:35:25;;;;;;;7.25;1.33;;;8.80;99.90;;;;;;20686474;28;20050;-45
2022/02/12 12:45:27;;;;;;;2.63;1.17;;;8.90;99.90;;;;;;20665936;28;20034;-45
2022/02/12 12:55:28;;;;;;;2.58;1.15;;;9.20;99.90;;;;;;20655071;28;20083;-45
2022/02/12 13:05:31;;;;;;;2.38;0.80;;;9.60;99.90;;;;;;20648504;28;20042;-46
2022/02/12 13:15:39;;;;;;;2.38;1.00;;;9.60;99.90;;;;;;20657079;28;20053;-45
2022/02/12 13:25:42;;;;;;;3.67;0.95;;;9.90;99.90;;;;;;20675337;28;20033;-46
2022/02/12 13:35:45;;;;;;;4.00;0.80;;;9.90;99.90;;;;;;20657629;28;20050;-45
2022/02/12 13:45:47;;;;;;;5.75;1.10;;;10.00;99.90;;;;;;20671152;28;20042;-45
2022/02/12 13:56:02;;;;;;;4.47;0.90;;;10.00;99.90;;;;;;20655077;28;20403;-45
2022/02/12 14:06:08;;;;;;;3.45;0.80;;;9.90;99.90;;;;;;20654678;28;20498;-46
2022/02/12 14:16:09;;;;;;;4.75;0.90;;;9.70;99.90;;;;;;20611420;28;20054;-46
2022/02/12 14:26:11;;;;;;;6.65;1.00;;;9.20;99.90;;;;;;20605798;28;20046;-45
2022/02/12 14:36:12;;;;;;;2.65;0.75;;;8.80;99.90;;;;;;20597616;28;20054;-45
2022/02/12 14:46:13;;;;;;;4.13;1.00;;;9.00;99.90;;;;;;20625368;28;20045;-45
2022/02/12 14:56:16;;;;;;;6.95;1.27;;;9.50;99.90;;;;;;20660469;28;20053;-45
2022/02/12 15:06:18;;;;;;;2.58;0.70;;;9.80;99.90;;;;;;20672088;28;20036;-45
2022/02/12 15:16:19;;;;;;;4.80;1.00;;;9.30;99.90;;;;;;20665552;28;20045;-45
2022/02/12 15:26:22;;;;;;;3.63;0.98;;;8.60;99.90;;;;;;20666997;28;20049;-45
2022/02/12 15:36:23;;;;;;;1.58;0.70;;;8.10;99.90;;;;;;20651381;28;20049;-45
2022/02/12 15:46:30;;;;;;;4.90;1.40;;;8.00;99.90;;;;;;20624681;28;20330;-45
2022/02/12 15:56:33;;;;;;;5.05;1.08;;;7.70;99.90;;;;;;20630042;28;20054;-45
2022/02/12 16:06:34;;;;;;;3.65;1.10;;;7.40;99.90;;;;;;20639359;28;20037;-45
2022/02/12 16:16:35;;;;;;;5.65;1.63;;;7.20;99.90;;;;;;20644694;28;20506;-45
2022/02/12 16:26:37;;;;;;;2.95;1.15;;;7.00;99.90;;;;;;20645847;28;20043;-45
2022/02/12 16:36:38;;;;;;;6.55;1.23;;;6.80;99.90;;;;;;20652919;28;20045;-45
2022/02/12 16:46:39;;;;;;;4.22;1.35;;;6.70;99.90;;;;;;20661002;28;20042;-45
2022/02/12 16:56:41;;;;;;;3.75;1.08;;;6.50;99.90;;;;;;20647175;28;20056;-45
2022/02/12 17:06:42;;;;;;;4.97;1.15;;;6.30;99.90;;;;;;20662085;28;20197;-46
2022/02/12 17:16:43;;;;;;;3.72;1.15;;;6.20;99.90;;;;;;20714321;28;20053;-46
2022/02/12 17:26:46;;;;;;;5.32;0.80;;;6.10;99.90;;;;;;20716832;28;20291;-45
2022/02/12 17:36:47;;;;;;;5.32;1.50;;;6.10;99.90;;;;;;20703542;28;20065;-45
2022/02/12 17:46:49;;;;;;;4.93;1.67;;;6.10;99.90;;;;;;20696549;28;20038;-45
2022/02/12 17:56:50;;;;;;;3.22;1.27;;;6.00;99.90;;;;;;20685966;28;20486;-45
2022/02/12 18:06:52;;;;;;;10.48;1.23;;;6.00;99.90;;;;;;20685008;28;20030;-45
2022/02/12 18:16:53;;;;;;;5.68;1.20;;;5.80;99.90;;;;;;20652913;28;20414;-45
2022/02/12 18:26:55;;;;;;;2.85;1.27;;;5.60;99.90;;;;;;20640816;28;20037;-45
2022/02/12 18:36:56;;;;;;;13.70;1.65;;;5.50;99.90;;;;;;20670080;28;20038;-45
2022/02/12 18:46:57;;;;;;;4.95;1.50;;;5.40;99.90;;;;;;20658095;28;20065;-45
2022/02/12 18:57:01;;;;;;;7.45;1.90;;;5.30;99.90;;;;;;20707939;28;20151;-45
2022/02/12 19:07:02;;;;;;;1.85;1.15;;;5.20;99.90;;;;;;20690044;28;20034;-45
2022/02/12 19:17:08;;;;;;;3.38;1.20;;;5.10;99.90;;;;;;20689722;28;20418;-45
2022/02/12 19:27:09;;;;;;;8.57;2.33;;;5.10;99.90;;;;;;20696519;28;20034;-45
2022/02/12 19:37:11;;;;;;;3.70;1.60;;;5.10;99.90;;;;;;20703149;28;20053;-45
2022/02/12 19:47:12;;;;;;;7.32;1.95;;;5.00;99.90;;;;;;20708015;28;20038;-45
2022/02/12 19:57:14;;;;;;;2.97;1.00;;;4.90;99.90;;;;;;20724696;28;20053;-45
2022/02/12 20:07:15;;;;;;;6.00;2.15;;;4.90;99.90;;;;;;20706983;28;20042;-46
2022/02/12 20:17:19;;;;;;;4.20;1.23;;;4.80;99.90;;;;;;20734504;28;20504;-45
2022/02/12 20:27:22;;;;;;;7.53;2.35;;;4.70;99.90;;;;;;20697145;28;20030;-45
2022/02/12 20:37:23;;;;;;;4.55;2.03;;;4.70;99.90;;;;;;20700354;28;20535;-45
2022/02/12 20:47:24;;;;;;;5.85;1.27;;;4.60;99.90;;;;;;20701457;28;20034;-45
2022/02/12 20:57:25;;;;;;;2.30;1.15;;;4.60;99.90;;;;;;20707249;28;20248;-45
2022/02/12 21:07:26;;;;;;;5.60;1.80;;;4.60;99.90;;;;;;20705926;28;20244;-45
2022/02/12 21:17:27;;;;;;;5.00;1.70;;;4.50;99.90;;;;;;20686879;28;20048;-45
2022/02/12 21:27:29;;;;;;;3.50;1.15;;;4.50;99.90;;;;;;20720310;28;20046;-45
2022/02/12 21:37:32;;;;;;;3.67;1.30;;;4.30;99.90;;;;;;20712354;28;20068;-45
2022/02/12 21:47:34;;;;;;;4.40;1.52;;;4.20;99.90;;;;;;20700308;28;20048;-44
2022/02/12 21:57:35;;;;;;;7.35;2.53;;;4.10;99.90;;;;;;20687678;28;20042;-44
2022/02/12 22:07:36;;;;;;;7.20;1.80;;;4.00;99.90;;;;;;20689257;28;20033;-45
2022/02/12 22:17:40;;;;;;;5.10;1.38;;;3.90;99.90;;;;;;20672960;28;20048;-45
2022/02/12 22:27:41;;;;;;;3.63;1.30;;;3.70;99.90;;;;;;20676168;28;20041;-44
2022/02/12 22:37:42;;;;;;;3.05;1.58;;;3.70;99.90;;;;;;20667984;28;20064;-45
2022/02/12 22:47:44;;;;;;;5.28;1.42;;;3.60;99.90;;;;;;20656422;28;20031;-44
2022/02/12 22:57:45;;;;;;;5.97;1.85;;;3.50;99.90;;;;;;20605672;28;20057;-44
2022/02/12 23:07:46;;;;;;;3.00;1.35;;;3.30;99.90;;;;;;20616158;28;20042;-44
2022/02/12 23:17:53;;;;;;;5.40;1.30;;;3.30;99.90;;;;;;20645978;28;20523;-44
2022/02/12 23:27:54;;;;;;;4.50;1.77;;;3.30;99.90;;;;;;20702936;28;20038;-44
2022/02/12 23:37:56;;;;;;;6.32;1.70;;;3.10;99.90;;;;;;20709219;28;20057;-44
2022/02/12 23:47:58;;;;;;;6.57;1.60;;;3.10;99.90;;;;;;20725253;28;20042;-45
2022/02/12 23:57:59;;;;;;;4.47;1.45;;;2.90;99.90;;;;;;20735445;28;20067;-44
